Time;durP1;ratioP1;P1;durP2;ratioP2;P2;SDS_P1;SDS_P2;PMS_P1;PMS_P2;Temp;Humidity;BMP_temperature;BMP_pressure;BME280_temperature;BME280_humidity;BME280_pressure;Samples;Min_cycle;Max_cycle;Signal;HPM_P1;HPM_P2
2022/11/13 00:00:41;;;;;;;;;;;;;;;4.80;89.44;99198.50;5127871;27;19931;-56
2022/11/13 00:03:29;;;;;;;;;;;;;;;4.14;90.17;99184.56;5144265;27;19938;-56
2022/11/13 00:06:18;;;;;;;;;;;;;;;4.41;91.30;99196.41;5129087;27;20394;-56
2022/11/13 00:09:04;;;;;;;;;;;;;;;4.51;90.94;99192.28;5123589;27;20105;-56
2022/11/13 00:11:51;;;;;;;;;;;;;;;4.51;90.69;99192.28;5129282;27;19938;-56
2022/11/13 00:14:38;;;;;;;;;;;;;;;4.56;90.28;99193.19;5124352;27;19937;-56
2022/11/13 00:17:25;;;;;;;;;;;;;;;4.54;90.24;99195.31;5135046;27;19930;-56
2022/11/13 00:20:13;;;;;;;;;;;;;;;4.51;90.14;99193.09;5131188;27;19931;-55
2022/11/13 00:23:01;;;;;;;;;;;;;;;4.50;89.74;99187.97;5140547;27;19930;-56
2022/11/13 00:25:48;;;;;;;;;;;;;;;4.49;89.70;99189.84;5132133;27;19950;-56
2022/11/13 00:28:34;;;;;;;;;;;;;;;4.49;89.55;99189.84;5133339;27;19931;-56
2022/11/13 00:31:21;;;;;;;;;;;;;;;4.50;88.93;99180.69;5147063;27;19930;-56
2022/11/13 00:34:08;;;;;;;;;;;;;;;4.09;89.01;99181.78;5150020;27;19937;-56
2022/11/13 00:40:27;;;;;;;;;;;;;;;3.92;90.32;99184.38;5135866;27;19930;-56
2022/11/13 00:43:14;;;;;;;;;;;;;;;4.24;90.07;99183.97;5138518;27;19953;-56
2022/11/13 00:46:01;;;;;;;;;;;;;;;4.35;89.44;99180.41;5129299;27;19930;-56
2022/11/13 00:49:12;;;;;;;;;;;;;;;4.01;88.40;99177.59;5139718;27;20402;-56
2022/11/13 00:52:01;;;;;;;;;;;;;;;3.99;90.21;99174.31;5130185;27;19934;-56
2022/11/13 00:54:48;;;;;;;;;;;;;;;4.02;89.29;99175.72;5131370;27;20410;-56
2022/11/13 00:57:36;;;;;;;;;;;;;;;3.85;90.48;99175.63;5136472;27;19930;-56
2022/11/13 01:00:23;;;;;;;;;;;;;;;3.82;89.66;99171.53;5129898;27;19930;-57
2022/11/13 01:03:10;;;;;;;;;;;;;;;3.85;89.31;99172.94;5132704;27;20019;-56
2022/11/13 01:05:57;;;;;;;;;;;;;;;3.55;90.56;99173.91;5130937;27;19938;-56
2022/11/13 01:08:44;;;;;;;;;;;;;;;3.33;90.70;99172.88;5127352;27;20393;-56
2022/11/13 01:11:31;;;;;;;;;;;;;;;3.49;90.51;99157.91;5129594;27;19935;-56
2022/11/13 01:14:19;;;;;;;;;;;;;;;3.32;90.30;99155.13;5134675;27;19929;-56
2022/11/13 01:17:06;;;;;;;;;;;;;;;3.24;91.44;99158.13;5130594;27;19931;-55
2022/11/13 01:19:53;;;;;;;;;;;;;;;3.41;90.32;99153.72;5131055;27;19924;-56
2022/11/13 01:22:39;;;;;;;;;;;;;;;3.24;89.78;99152.78;5126520;27;19934;-56
2022/11/13 01:25:25;;;;;;;;;;;;;;;3.56;90.28;99148.66;5128117;27;19999;-56
2022/11/13 01:28:12;;;;;;;;;;;;;;;3.63;89.87;99149.38;5132382;27;20394;-55
2022/11/13 01:31:01;;;;;;;;;;;;;;;3.47;89.53;99146.59;5126733;27;19941;-56
2022/11/13 01:33:48;;;;;;;;;;;;;;;3.62;89.63;99137.00;5134794;27;19929;-56
2022/11/13 01:36:34;;;;;;;;;;;;;;;3.66;90.28;99145.38;5129100;27;20064;-56
2022/11/13 01:39:21;;;;;;;;;;;;;;;3.80;89.16;99136.03;5127254;27;19930;-55
2022/11/13 01:42:08;;;;;;;;;;;;;;;3.85;89.25;99135.31;5129256;27;20451;-56
2022/11/13 01:44:56;;;;;;;;;;;;;;;3.81;89.25;99126.91;5137126;27;20011;-55
2022/11/13 01:47:43;;;;;;;;;;;;;;;3.81;88.82;99128.78;5123219;27;19929;-55
2022/11/13 01:50:30;;;;;;;;;;;;;;;3.61;88.62;99124.59;5134826;27;19931;-56
2022/11/13 01:53:41;;;;;;;;;;;;;;;3.41;90.77;99118.81;5132103;27;19931;-56
2022/11/13 01:56:31;;;;;;;;;;;;;;;3.32;89.94;99112.16;5131461;27;19930;-56
2022/11/13 01:59:19;;;;;;;;;;;;;;;3.54;89.75;99102.41;5131955;27;20337;-55
2022/11/13 02:02:08;;;;;;;;;;;;;;;3.23;89.64;99100.13;5099642;28;20403;-55
2022/11/13 02:04:56;;;;;;;;;;;;;;;3.01;90.14;99092.66;5092567;28;20292;-56
2022/11/13 02:07:42;;;;;;;;;;;;;;;3.14;91.33;99087.06;5096839;28;20003;-56
2022/11/13 02:10:29;;;;;;;;;;;;;;;3.32;90.30;99090.66;5091376;28;19935;-56
2022/11/13 02:13:16;;;;;;;;;;;;;;;3.36;90.28;99084.59;5103136;28;19946;-56
2022/11/13 02:16:27;;;;;;;;;;;;;;;3.28;89.88;99076.06;5099688;28;20070;-55
2022/11/13 02:19:15;;;;;;;;;;;;;;;3.34;90.09;99069.75;5089857;28;19935;-56
2022/11/13 02:22:04;;;;;;;;;;;;;;;3.33;90.20;99060.88;5101069;28;19954;-56
2022/11/13 02:24:53;;;;;;;;;;;;;;;3.37;89.01;99061.22;5098075;28;20004;-56
2022/11/13 02:27:42;;;;;;;;;;;;;;;3.14;88.75;99048.63;5100401;28;20334;-57
2022/11/13 02:30:29;;;;;;;;;;;;;;;2.87;88.84;99046.41;5087128;28;20415;-56
2022/11/13 02:33:28;;;;;;;;;;;;;;;2.94;88.67;99049.00;5097904;28;20384;-55
2022/11/13 02:36:15;;;;;;;;;;;;;;;3.02;88.25;99050.50;5089566;28;19973;-56
2022/11/13 02:39:02;;;;;;;;;;;;;;;2.93;87.92;99039.31;5096001;28;19945;-56
2022/11/13 02:42:14;;;;;;;;;;;;;;;2.98;87.36;99039.41;5100954;28;19931;-56
2022/11/13 02:45:02;;;;;;;;;;;;;;;2.94;86.29;99037.44;5095223;28;20486;-56
2022/11/13 02:47:49;;;;;;;;;;;;;;;2.88;85.68;99031.97;5097858;28;19993;-56
2022/11/13 02:50:36;;;;;;;;;;;;;;;2.82;85.94;99038.28;5087467;28;19930;-56
2022/11/13 02:53:24;;;;;;;;;;;;;;;2.71;86.13;99030.19;5090890;28;19938;-56
2022/11/13 02:56:11;;;;;;;;;;;;;;;2.62;85.59;99029.75;5091285;28;19935;-56
2022/11/13 02:58:58;;;;;;;;;;;;;;;2.64;85.68;99022.25;5102157;28;19930;-55
2022/11/13 03:01:46;;;;;;;;;;;;;;;2.39;86.12;99018.97;5122776;27;19930;-56
2022/11/13 03:04:40;;;;;;;;;;;;;;;2.52;86.29;99018.78;5132921;27;19930;-56
2022/11/13 03:07:46;;;;;;;;;;;;;;;2.66;85.60;99009.41;5129498;27;20433;-56
2022/11/13 03:10:34;;;;;;;;;;;;;;;2.66;85.59;99011.28;5133599;27;19930;-56
2022/11/13 03:13:21;;;;;;;;;;;;;;;2.63;85.53;99008.03;5131101;27;19954;-55
2022/11/13 03:16:09;;;;;;;;;;;;;;;2.54;85.49;99004.06;5131134;27;19930;-56
2022/11/13 03:18:57;;;;;;;;;;;;;;;2.60;85.22;99011.16;5133437;27;19930;-56
2022/11/13 03:21:44;;;;;;;;;;;;;;;2.60;85.39;99003.13;5139113;27;20014;-56
2022/11/13 03:24:30;;;;;;;;;;;;;;;2.26;86.05;99010.09;5128046;27;19931;-56
2022/11/13 03:27:17;;;;;;;;;;;;;;;2.46;85.69;99000.91;5132285;27;20016;-57
2022/11/13 03:30:04;;;;;;;;;;;;;;;2.40;85.91;98999.13;5132467;27;19934;-60
2022/11/13 03:32:53;;;;;;;;;;;;;;;2.55;84.77;98994.16;5138731;27;19991;-56
2022/11/13 03:38:53;;;;;;;;;;;;;;;2.56;84.52;98996.63;5141763;27;19934;-56
2022/11/13 03:41:40;;;;;;;;;;;;;;;2.54;84.52;98990.66;5127027;27;20031;-55
2022/11/13 03:44:27;;;;;;;;;;;;;;;2.28;85.68;98986.53;5143369;27;19930;-56
2022/11/13 03:47:13;;;;;;;;;;;;;;;2.17;85.88;98991.88;5140413;27;20387;-55
2022/11/13 03:50:00;;;;;;;;;;;;;;;2.28;85.67;98989.22;5131506;27;19931;-56
2022/11/13 03:52:48;;;;;;;;;;;;;;;2.36;85.60;98990.75;5137062;27;19930;-55
2022/11/13 03:55:35;;;;;;;;;;;;;;;2.47;85.37;98987.28;5134141;27;20008;-56
2022/11/13 03:58:22;;;;;;;;;;;;;;;2.49;84.86;98995.88;5130215;27;19935;-55
2022/11/13 04:01:09;;;;;;;;;;;;;;;2.56;84.34;98991.25;5134291;27;19934;-56
2022/11/13 04:03:55;;;;;;;;;;;;;;;2.26;84.85;98980.59;5138067;27;19931;-56
2022/11/13 04:06:41;;;;;;;;;;;;;;;2.30;84.77;98979.09;5132185;27;19965;-58
2022/11/13 04:09:29;;;;;;;;;;;;;;;2.19;85.63;98977.22;5140154;27;19938;-56
2022/11/13 04:12:16;;;;;;;;;;;;;;;2.26;85.53;98969.88;5146143;27;20574;-56
2022/11/13 04:15:03;;;;;;;;;;;;;;;2.31;85.65;98969.19;5133683;27;19946;-56
2022/11/13 04:17:50;;;;;;;;;;;;;;;2.35;85.31;98962.31;5134266;27;19923;-56
2022/11/13 04:20:37;;;;;;;;;;;;;;;2.42;84.59;98960.31;5125857;27;20028;-56
2022/11/13 04:23:24;;;;;;;;;;;;;;;2.23;85.57;98966.81;5147819;27;20299;-56
2022/11/13 04:26:13;;;;;;;;;;;;;;;2.18;86.13;98964.84;5119020;27;19934;-56
2022/11/13 04:29:25;;;;;;;;;;;;;;;2.29;85.75;98961.38;5122635;27;19930;-56
2022/11/13 04:32:11;;;;;;;;;;;;;;;2.22;85.43;98965.19;5121871;27;19923;-59
2022/11/13 04:34:58;;;;;;;;;;;;;;;2.36;85.58;98956.72;5128623;27;20031;-56
2022/11/13 04:37:45;;;;;;;;;;;;;;;2.38;84.97;98958.34;5119756;27;19930;-56
2022/11/13 04:40:32;;;;;;;;;;;;;;;2.29;85.19;98952.50;5144180;27;19934;-56
2022/11/13 04:43:20;;;;;;;;;;;;;;;2.05;84.61;98949.78;5140860;27;19973;-55
2022/11/13 04:46:07;;;;;;;;;;;;;;;1.89;84.95;98947.78;5146381;27;20390;-56
2022/11/13 04:49:18;;;;;;;;;;;;;;;1.81;84.67;98948.09;5125511;27;19930;-58
2022/11/13 04:52:05;;;;;;;;;;;;;;;1.96;84.72;98947.66;5132946;27;19946;-56
2022/11/13 04:54:52;;;;;;;;;;;;;;;1.98;83.44;98943.72;5129632;27;19946;-56
2022/11/13 04:57:38;;;;;;;;;;;;;;;1.86;83.13;98942.88;5132588;27;19985;-55
2022/11/13 05:00:27;;;;;;;;;;;;;;;1.88;83.30;98943.47;5132222;27;19930;-56
2022/11/13 05:03:14;;;;;;;;;;;;;;;1.87;83.12;98941.03;5131866;27;19930;-55
2022/11/13 05:06:04;;;;;;;;;;;;;;;1.52;84.03;98937.19;5138899;27;20011;-56
2022/11/13 05:08:50;;;;;;;;;;;;;;;1.50;84.50;98927.75;5131901;27;20019;-56
2022/11/13 05:11:37;;;;;;;;;;;;;;;1.49;84.68;98934.97;5122617;27;19992;-55
2022/11/13 05:14:24;;;;;;;;;;;;;;;1.24;83.42;98928.94;5126890;27;19930;-56
2022/11/13 05:17:17;;;;;;;;;;;;;;;1.09;84.01;98928.50;5133389;27;19930;-56
2022/11/13 05:20:05;;;;;;;;;;;;;;;1.08;83.97;98927.69;5131060;27;20413;-56
2022/11/13 05:22:51;;;;;;;;;;;;;;;1.24;83.93;98931.59;5127825;27;19931;-55
2022/11/13 05:25:38;;;;;;;;;;;;;;;1.29;82.13;98923.72;5136252;27;19931;-56
2022/11/13 05:28:25;;;;;;;;;;;;;;;1.15;82.00;98922.25;5141454;27;19934;-55
2022/11/13 05:31:14;;;;;;;;;;;;;;;0.84;82.94;98929.41;5132349;27;19923;-56
2022/11/13 05:34:02;;;;;;;;;;;;;;;0.32;84.87;98928.09;5138698;27;19934;-56
2022/11/13 05:37:16;;;;;;;;;;;;;;;0.61;85.09;98922.03;5140788;27;20394;-55
2022/11/13 05:40:10;;;;;;;;;;;;;;;0.67;84.20;98912.31;5129268;27;20018;-56
2022/11/13 05:42:57;;;;;;;;;;;;;;;0.66;84.42;98908.00;5135394;27;19982;-55
2022/11/13 05:45:44;;;;;;;;;;;;;;;0.66;84.21;98908.00;5135880;27;20419;-55
2022/11/13 05:48:30;;;;;;;;;;;;;;;0.71;84.50;98900.13;5134380;27;19930;-56
2022/11/13 05:51:42;;;;;;;;;;;;;;;0.81;83.70;98897.75;5132730;27;20022;-55
2022/11/13 05:54:30;;;;;;;;;;;;;;;0.76;83.99;98892.25;5136707;27;19923;-56
2022/11/13 05:57:16;;;;;;;;;;;;;;;0.77;84.20;98889.34;5121483;27;19930;-56
2022/11/13 06:00:03;;;;;;;;;;;;;;;0.75;83.86;98893.31;5114337;27;19973;-54
2022/11/13 06:02:50;;;;;;;;;;;;;;;0.70;83.77;98887.81;5124256;27;19947;-55
2022/11/13 06:08:47;;;;;;;;;;;;;;;0.71;83.76;98886.75;5126634;27;19931;-56
2022/11/13 06:11:35;;;;;;;;;;;;;;;0.62;84.33;98885.41;5131061;27;19976;-56
2022/11/13 06:14:22;;;;;;;;;;;;;;;0.30;84.97;98882.06;5115583;27;19976;-56
2022/11/13 06:17:08;;;;;;;;;;;;;;;0.45;85.42;98875.31;5118889;27;19931;-56
2022/11/13 06:19:54;;;;;;;;;;;;;;;0.72;84.17;98889.22;5115515;27;19930;-55
2022/11/13 06:22:41;;;;;;;;;;;;;;;0.75;83.55;98879.94;5126056;27;19930;-57
2022/11/13 06:25:28;;;;;;;;;;;;;;;0.66;83.95;98878.59;5128954;27;19930;-57
2022/11/13 06:28:16;;;;;;;;;;;;;;;0.45;84.38;98885.19;5128631;27;19934;-56
2022/11/13 06:31:04;;;;;;;;;;;;;;;0.65;84.42;98890.34;5123668;27;19935;-57
2022/11/13 06:33:50;;;;;;;;;;;;;;;0.83;83.71;98889.50;5130939;27;20308;-55
2022/11/13 06:36:37;;;;;;;;;;;;;;;0.82;83.44;98885.19;5129474;27;19954;-56
2022/11/13 06:39:24;;;;;;;;;;;;;;;0.67;85.17;98872.19;5113035;27;20338;-56
2022/11/13 06:42:11;;;;;;;;;;;;;;;0.64;84.30;98869.97;5123152;27;19930;-56
2022/11/13 06:44:59;;;;;;;;;;;;;;;0.62;84.56;98864.84;5123510;27;19971;-57
2022/11/13 06:47:46;;;;;;;;;;;;;;;0.50;85.00;98872.78;5124390;27;19946;-57
2022/11/13 06:50:32;;;;;;;;;;;;;;;0.79;84.22;98897.16;5120428;27;19923;-57
2022/11/13 06:53:20;;;;;;;;;;;;;;;0.88;83.77;98890.47;5124333;27;20007;-57
2022/11/13 06:56:07;;;;;;;;;;;;;;;0.78;84.10;98884.81;5130375;27;19938;-54
2022/11/13 06:58:55;;;;;;;;;;;;;;;0.90;84.20;98883.00;5139992;27;20318;-57
2022/11/13 07:01:43;;;;;;;;;;;;;;;0.85;84.19;98879.38;5137476;27;20427;-56
2022/11/13 07:04:29;;;;;;;;;;;;;;;0.89;84.50;98886.75;5128155;27;20052;-57
2022/11/13 07:07:41;;;;;;;;;;;;;;;1.08;84.00;98881.38;5129539;27;19931;-57
2022/11/13 07:10:27;;;;;;;;;;;;;;;1.17;83.70;98863.94;5134300;27;19943;-57
2022/11/13 07:16:25;;;;;;;;;;;;;;;1.07;83.81;98853.81;5133908;27;19934;-57
2022/11/13 07:19:25;;;;;;;;;;;;;;;0.95;83.77;98842.22;5132291;27;19996;-57
2022/11/13 07:25:23;;;;;;;;;;;;;;;1.27;83.91;98851.66;5122488;27;20013;-57
2022/11/13 07:28:10;;;;;;;;;;;;;;;1.35;83.00;98868.44;5132243;27;19931;-57
2022/11/13 07:30:57;;;;;;;;;;;;;;;1.34;82.64;98859.59;5127423;27;20406;-56
2022/11/13 07:33:47;;;;;;;;;;;;;;;1.35;83.06;98861.22;5133963;27;20053;-57
2022/11/13 07:36:35;;;;;;;;;;;;;;;1.33;83.70;98843.75;5139761;27;19950;-57
2022/11/13 07:39:22;;;;;;;;;;;;;;;1.34;83.28;98840.03;5124829;27;19988;-57
2022/11/13 07:42:09;;;;;;;;;;;;;;;1.50;82.87;98845.56;5135525;27;19980;-56
2022/11/13 07:44:55;;;;;;;;;;;;;;;1.56;82.44;98833.91;5119402;27;19946;-57
2022/11/13 07:47:42;;;;;;;;;;;;;;;1.62;82.90;98828.69;5128947;27;19930;-58
2022/11/13 07:50:30;;;;;;;;;;;;;;;1.65;82.55;98825.53;5126956;27;20015;-58
2022/11/13 07:53:19;;;;;;;;;;;;;;;1.75;82.77;98837.31;5133505;27;19946;-58
2022/11/13 07:56:06;;;;;;;;;;;;;;;1.75;82.90;98820.41;5130982;27;19930;-58
2022/11/13 07:58:53;;;;;;;;;;;;;;;1.91;82.60;98832.31;5131769;27;19930;-57
2022/11/13 08:01:40;;;;;;;;;;;;;;;1.90;83.48;98818.09;5122753;27;19979;-55
2022/11/13 08:04:27;;;;;;;;;;;;;;;2.07;83.04;98815.53;5121764;27;19934;-58
2022/11/13 08:10:25;;;;;;;;;;;;;;;2.19;83.06;98802.16;5122425;27;20081;-57
2022/11/13 08:13:11;;;;;;;;;;;;;;;2.11;83.57;98803.31;5131992;27;19970;-57
2022/11/13 08:15:59;;;;;;;;;;;;;;;2.14;84.02;98796.66;5128866;27;19930;-59
2022/11/13 08:18:45;;;;;;;;;;;;;;;2.44;83.55;98801.84;5123634;27;19942;-59
2022/11/13 08:21:32;;;;;;;;;;;;;;;2.56;83.29;98790.06;5121821;27;20304;-57
2022/11/13 08:24:19;;;;;;;;;;;;;;;2.51;83.92;98789.97;5119940;27;19935;-56
2022/11/13 08:27:07;;;;;;;;;;;;;;;2.69;83.84;98794.31;5127062;27;19934;-55
2022/11/13 08:29:55;;;;;;;;;;;;;;;2.74;83.80;98780.19;5124556;27;19931;-59
2022/11/13 08:32:42;;;;;;;;;;;;;;;2.87;83.29;98775.34;5120624;27;19934;-58
2022/11/13 08:35:30;;;;;;;;;;;;;;;3.19;82.77;98752.53;5126655;27;19931;-58
2022/11/13 08:38:21;;;;;;;;;;;;;;;3.14;82.27;98746.06;5126760;27;19930;-56
2022/11/13 08:41:08;;;;;;;;;;;;;;;3.23;81.28;98724.97;5130866;27;19930;-57
2022/11/13 08:43:57;;;;;;;;;;;;;;;3.30;79.93;98722.94;5128546;27;20044;-58
2022/11/13 08:46:43;;;;;;;;;;;;;;;2.96;79.89;98723.97;5130498;27;19984;-57
2022/11/13 08:49:31;;;;;;;;;;;;;;;3.09;80.14;98729.84;5127010;27;19930;-56
2022/11/13 08:52:42;;;;;;;;;;;;;;;3.25;79.70;98712.13;5124838;27;20008;-54
2022/11/13 08:55:28;;;;;;;;;;;;;;;3.65;78.17;98717.28;5130242;27;20057;-57
2022/11/13 08:58:15;;;;;;;;;;;;;;;3.58;78.34;98713.97;5128739;27;20048;-57
2022/11/13 09:01:04;;;;;;;;;;;;;;;3.79;77.91;98717.78;5130242;27;19938;-57
2022/11/13 09:03:51;;;;;;;;;;;;;;;3.89;77.99;98711.72;5141480;27;20418;-59
2022/11/13 09:06:40;;;;;;;;;;;;;;;3.90;77.59;98724.09;5123396;27;20311;-57
2022/11/13 09:09:27;;;;;;;;;;;;;;;3.85;78.21;98721.34;5119736;27;19964;-56
2022/11/13 09:12:13;;;;;;;;;;;;;;;4.02;77.85;98705.16;5128065;27;19965;-56
2022/11/13 09:15:00;;;;;;;;;;;;;;;4.11;77.69;98703.69;5116692;27;19931;-57
2022/11/13 09:17:47;;;;;;;;;;;;;;;4.28;76.75;98709.00;5127043;27;19954;-57
2022/11/13 09:20:34;;;;;;;;;;;;;;;4.37;76.64;98723.63;5140697;27;20398;-57
2022/11/13 09:23:21;;;;;;;;;;;;;;;4.47;76.40;98713.81;5129122;27;19984;-58
2022/11/13 09:26:08;;;;;;;;;;;;;;;4.62;75.73;98721.22;5141800;27;20045;-54
2022/11/13 09:28:55;;;;;;;;;;;;;;;4.72;75.82;98705.19;5136570;27;20445;-58
2022/11/13 09:31:42;;;;;;;;;;;;;;;4.72;76.50;98707.06;5131699;27;19953;-58
2022/11/13 09:34:32;;;;;;;;;;;;;;;4.86;76.15;98713.66;5125435;27;19931;-58
2022/11/13 09:37:46;;;;;;;;;;;;;;;4.92;77.12;98711.84;5134259;27;19931;-57
2022/11/13 09:40:34;;;;;;;;;;;;;;;5.21;75.69;98717.75;5137707;27;19930;-57
2022/11/13 09:43:24;;;;;;;;;;;;;;;5.30;76.72;98718.91;5139973;27;19930;-57
2022/11/13 09:46:16;;;;;;;;;;;;;;;5.30;76.55;98710.00;5125434;27;19968;-61
2022/11/13 09:49:08;;;;;;;;;;;;;;;5.58;76.15;98709.69;5134282;27;20501;-58
2022/11/13 09:51:57;;;;;;;;;;;;;;;5.68;75.98;98707.06;5128940;27;20029;-58
2022/11/13 09:54:48;;;;;;;;;;;;;;;5.79;76.47;98716.81;5130001;27;19923;-58
2022/11/13 09:57:38;;;;;;;;;;;;;;;6.01;75.64;98713.22;5116298;27;20014;-57
2022/11/13 10:00:25;;;;;;;;;;;;;;;6.15;75.31;98717.06;5122407;27;19934;-58
2022/11/13 10:03:19;;;;;;;;;;;;;;;6.29;74.67;98696.63;5126245;27;19931;-57
2022/11/13 10:06:25;;;;;;;;;;;;;;;6.35;74.81;98704.75;5136965;27;19930;-58
2022/11/13 10:09:19;;;;;;;;;;;;;;;6.59;73.22;98700.50;5140908;27;19977;-58
2022/11/13 10:12:07;;;;;;;;;;;;;;;6.75;72.67;98709.44;5132478;27;20467;-58
2022/11/13 10:14:54;;;;;;;;;;;;;;;6.86;72.31;98704.88;5122817;27;19930;-58
2022/11/13 10:17:41;;;;;;;;;;;;;;;6.99;71.82;98696.25;5131275;27;19930;-57
2022/11/13 10:20:29;;;;;;;;;;;;;;;7.12;71.28;98697.63;5100390;27;19997;-57
2022/11/13 10:23:17;;;;;;;;;;;;;;;7.29;70.90;98698.97;5124451;27;19934;-58
2022/11/13 10:26:11;;;;;;;;;;;;;;;7.46;70.69;98697.91;5131386;27;20308;-57
2022/11/13 10:32:20;;;;;;;;;;;;;;;7.77;70.43;98677.81;5120997;27;19992;-58
2022/11/13 10:35:15;;;;;;;;;;;;;;;7.83;70.09;98671.34;5123435;27;19950;-57
2022/11/13 10:38:03;;;;;;;;;;;;;;;8.03;70.53;98669.63;5127124;27;19930;-55
2022/11/13 10:41:17;;;;;;;;;;;;;;;8.06;69.39;98666.38;5128199;27;20248;-57
2022/11/13 10:44:05;;;;;;;;;;;;;;;8.15;69.13;98662.03;5119441;27;19946;-58
2022/11/13 10:47:04;;;;;;;;;;;;;;;8.22;69.37;98659.03;5123788;27;19930;-58
2022/11/13 10:49:51;;;;;;;;;;;;;;;8.27;68.96;98654.41;5120601;27;19934;-58
2022/11/13 10:52:44;;;;;;;;;;;;;;;8.28;68.58;98645.19;5119521;27;19934;-59
2022/11/13 10:55:35;;;;;;;;;;;;;;;8.40;67.92;98625.91;5123168;27;19930;-58
2022/11/13 10:58:24;;;;;;;;;;;;;;;8.38;68.44;98618.09;5126643;27;19945;-58
2022/11/13 11:01:14;;;;;;;;;;;;;;;8.45;68.58;98617.78;5119721;27;20000;-58
2022/11/13 11:04:03;;;;;;;;;;;;;;;8.52;68.17;98620.16;5123604;27;19943;-58
2022/11/13 11:06:50;;;;;;;;;;;;;;;8.56;67.81;98610.38;5124691;27;19938;-56
2022/11/13 11:10:06;;;;;;;;;;;;;;;8.66;67.18;98604.91;5121346;27;19924;-59
2022/11/13 11:12:53;;;;;;;;;;;;;;;8.81;67.06;98604.81;5124597;27;19930;-59
2022/11/13 11:15:42;;;;;;;;;;;;;;;8.95;66.46;98601.44;5133753;27;19950;-57
2022/11/13 11:18:36;;;;;;;;;;;;;;;9.11;66.17;98602.94;5128798;27;19947;-58
2022/11/13 11:21:25;;;;;;;;;;;;;;;9.13;66.22;98596.13;5131112;27;19984;-58
2022/11/13 11:24:13;;;;;;;;;;;;;;;9.23;65.86;98600.66;5131653;27;20411;-58
2022/11/13 11:27:01;;;;;;;;;;;;;;;9.26;65.40;98586.50;5132384;27;19930;-58
2022/11/13 11:29:49;;;;;;;;;;;;;;;9.44;65.43;98585.00;5136764;27;19968;-59
2022/11/13 11:32:38;;;;;;;;;;;;;;;9.37;65.93;98573.66;5125771;27;19934;-58
2022/11/13 11:35:27;;;;;;;;;;;;;;;9.60;64.92;98577.50;5124328;27;19934;-58
2022/11/13 11:38:20;;;;;;;;;;;;;;;9.68;64.42;98571.44;5137215;27;20292;-58
2022/11/13 11:41:08;;;;;;;;;;;;;;;9.80;64.46;98550.16;5129614;27;19980;-59
2022/11/13 11:44:04;;;;;;;;;;;;;;;9.81;64.73;98540.09;5125506;27;19930;-59
2022/11/13 11:46:51;;;;;;;;;;;;;;;9.95;63.61;98530.13;5132103;27;19931;-58
2022/11/13 11:49:40;;;;;;;;;;;;;;;9.98;63.86;98524.13;5127344;27;20035;-59
2022/11/13 11:52:45;;;;;;;;;;;;;;;10.08;63.65;98520.47;5128481;27;19946;-59
2022/11/13 11:55:41;;;;;;;;;;;;;;;10.28;63.29;98501.19;5130146;27;20605;-58
2022/11/13 12:01:58;;;;;;;;;;;;;;;10.42;62.79;98496.63;5114979;27;20069;-59
2022/11/13 12:04:52;;;;;;;;;;;;;;;10.55;61.96;98486.91;5122233;27;19930;-59
2022/11/13 12:07:42;;;;;;;;;;;;;;;10.75;60.04;98485.75;5118549;27;20403;-59
2022/11/13 12:10:53;;;;;;;;;;;;;;;11.12;57.61;98484.00;5121518;27;19931;-58
2022/11/13 12:13:41;;;;;;;;;;;;;;;11.23;58.45;98480.78;5129958;27;19934;-58
2022/11/13 12:16:30;;;;;;;;;;;;;;;11.32;57.57;98485.53;5119368;27;19930;-58
2022/11/13 12:19:21;;;;;;;;;;;;;;;11.54;55.90;98469.31;5128545;27;20299;-58
2022/11/13 12:22:13;;;;;;;;;;;;;;;11.52;55.52;98469.63;5130122;27;19934;-58
2022/11/13 12:25:06;;;;;;;;;;;;;;;11.64;55.49;98465.56;5133253;27;19931;-56
2022/11/13 12:27:54;;;;;;;;;;;;;;;11.70;55.28;98464.34;5137602;27;19929;-59
2022/11/13 12:30:43;;;;;;;;;;;;;;;11.78;56.08;98460.91;5131253;27;20004;-58
2022/11/13 12:33:33;;;;;;;;;;;;;;;11.73;55.53;98463.75;5115525;27;19977;-57
2022/11/13 12:36:21;;;;;;;;;;;;;;;11.73;55.03;98461.03;5121130;27;19931;-58
2022/11/13 12:39:23;;;;;;;;;;;;;;;11.65;55.13;98457.09;5120356;27;19943;-59
2022/11/13 12:42:12;;;;;;;;;;;;;;;11.71;54.80;98455.88;5135227;27;20303;-58
2022/11/13 12:45:00;;;;;;;;;;;;;;;11.82;54.94;98459.19;5133807;27;19938;-59
2022/11/13 12:47:50;;;;;;;;;;;;;;;11.82;54.87;98451.03;5129547;27;19939;-58
2022/11/13 12:50:37;;;;;;;;;;;;;;;11.77;54.44;98456.56;5114556;27;19957;-58
2022/11/13 12:53:26;;;;;;;;;;;;;;;11.76;55.17;98444.06;5124288;27;19988;-59
2022/11/13 12:56:18;;;;;;;;;;;;;;;11.83;53.88;98441.78;5125898;27;19946;-59
2022/11/13 12:59:31;;;;;;;;;;;;;;;11.85;54.17;98436.03;5121927;27;20042;-59
2022/11/13 13:02:22;;;;;;;;;;;;;;;11.79;54.95;98438.03;5129246;27;20064;-58
2022/11/13 13:05:21;;;;;;;;;;;;;;;11.76;54.39;98435.91;5120027;27;19998;-58
2022/11/13 13:08:22;;;;;;;;;;;;;;;11.95;53.45;98428.44;5131383;27;20477;-58
2022/11/13 13:14:35;;;;;;;;;;;;;;;11.80;55.20;98423.28;5125708;27;20004;-58
2022/11/13 13:17:23;;;;;;;;;;;;;;;11.84;55.47;98421.59;5134239;27;19930;-58
2022/11/13 13:20:28;;;;;;;;;;;;;;;11.79;55.35;98414.31;5123092;27;19956;-58
2022/11/13 13:23:14;;;;;;;;;;;;;;;11.80;54.97;98409.69;5124858;27;20024;-59
2022/11/13 13:26:02;;;;;;;;;;;;;;;11.77;55.52;98408.41;5129032;27;19930;-58
2022/11/13 13:28:51;;;;;;;;;;;;;;;11.77;56.08;98399.41;5131138;27;20046;-58
2022/11/13 13:31:41;;;;;;;;;;;;;;;11.73;56.12;98398.41;5130570;27;20243;-58
2022/11/13 13:34:30;;;;;;;;;;;;;;;11.76;55.49;98401.31;5125412;27;19934;-59
2022/11/13 13:40:36;;;;;;;;;;;;;;;11.64;56.92;98392.09;5124538;27;20640;-59
2022/11/13 13:43:28;;;;;;;;;;;;;;;11.69;56.91;98397.41;5124673;27;20395;-58
2022/11/13 13:46:15;;;;;;;;;;;;;;;11.73;55.92;98403.88;5120951;27;19945;-58
2022/11/13 13:49:28;;;;;;;;;;;;;;;11.65;56.64;98397.22;5119804;27;19977;-58
2022/11/13 13:52:16;;;;;;;;;;;;;;;11.75;55.54;98390.75;5121451;27;19931;-58
2022/11/13 13:55:03;;;;;;;;;;;;;;;11.67;56.44;98386.84;5128486;27;19995;-59
2022/11/13 13:57:50;;;;;;;;;;;;;;;11.60;56.83;98383.72;5126121;27;19930;-57
2022/11/13 14:00:37;;;;;;;;;;;;;;;11.63;57.17;98379.59;5121495;27;19931;-58
2022/11/13 14:03:45;;;;;;;;;;;;;;;11.64;57.05;98381.19;5105476;28;19934;-59
2022/11/13 14:06:31;;;;;;;;;;;;;;;11.56;57.26;98380.03;5108612;27;19938;-59
2022/11/13 14:09:19;;;;;;;;;;;;;;;11.67;56.08;98378.69;5117479;27;20500;-55
2022/11/13 14:12:18;;;;;;;;;;;;;;;11.77;55.55;98378.44;5119881;27;20022;-58
2022/11/13 14:15:05;;;;;;;;;;;;;;;11.67;56.83;98377.88;5113457;27;19923;-59
2022/11/13 14:17:52;;;;;;;;;;;;;;;11.57;57.10;98376.19;5107498;27;20020;-58
2022/11/13 14:20:41;;;;;;;;;;;;;;;11.64;56.18;98368.41;5100639;27;19931;-58
2022/11/13 14:23:28;;;;;;;;;;;;;;;11.63;56.09;98366.00;5107161;27;19931;-58
2022/11/13 14:26:16;;;;;;;;;;;;;;;11.63;55.82;98358.63;5105983;27;19931;-59
2022/11/13 14:35:32;;;;;;;;;;;;;;;11.45;56.90;98346.78;5103563;27;19989;-59
2022/11/13 14:38:19;;;;;;;;;;;;;;;11.39;57.03;98341.75;5099867;27;20177;-56
2022/11/13 14:41:07;;;;;;;;;;;;;;;11.28;58.00;98339.25;5104421;27;19977;-58
2022/11/13 14:43:57;;;;;;;;;;;;;;;11.25;57.88;98339.88;5105630;27;19977;-59
2022/11/13 14:46:44;;;;;;;;;;;;;;;11.16;58.59;98336.25;5115018;27;20019;-58
2022/11/13 14:49:32;;;;;;;;;;;;;;;11.10;58.53;98323.06;5111163;27;20407;-58
2022/11/13 14:52:22;;;;;;;;;;;;;;;11.15;58.74;98317.53;5110757;27;19985;-55
2022/11/13 14:55:20;;;;;;;;;;;;;;;11.15;58.09;98314.81;5107963;27;20471;-58
2022/11/13 14:58:07;;;;;;;;;;;;;;;11.05;58.33;98324.00;5113344;27;19930;-59
2022/11/13 15:00:56;;;;;;;;;;;;;;;10.93;59.50;98326.44;5115546;27;20003;-59
2022/11/13 15:03:43;;;;;;;;;;;;;;;10.75;59.75;98319.97;5136032;27;19930;-58
2022/11/13 15:06:34;;;;;;;;;;;;;;;10.64;60.48;98324.00;5134430;27;20401;-58
2022/11/13 15:09:22;;;;;;;;;;;;;;;10.64;59.85;98324.78;5139899;27;19930;-58
2022/11/13 15:12:10;;;;;;;;;;;;;;;10.45;60.79;98322.19;5137446;27;20019;-58
2022/11/13 15:14:57;;;;;;;;;;;;;;;10.36;61.01;98323.16;5125953;27;19930;-58
2022/11/13 15:17:46;;;;;;;;;;;;;;;10.29;61.69;98320.06;5135224;27;19931;-58
2022/11/13 15:20:33;;;;;;;;;;;;;;;10.20;61.26;98330.75;5130495;27;20028;-58
2022/11/13 15:23:20;;;;;;;;;;;;;;;10.09;61.49;98330.13;5125898;27;19931;-59
2022/11/13 15:26:14;;;;;;;;;;;;;;;10.03;60.61;98330.50;5131503;27;19948;-59
2022/11/13 15:29:27;;;;;;;;;;;;;;;10.06;61.84;98332.63;5129044;27;19928;-57
2022/11/13 15:32:14;;;;;;;;;;;;;;;9.90;60.69;98335.56;5130721;27;19930;-58